Main page
METAR-TAF:

METAR-TAF

Airports :

Palmas Airport

Palmas, Tocantins, Brazil

latitude: 10-17-24S, longitude: 048-21-28W, elevation: 236 m

Current weather observation

The report was made 1 hour and 6 minutes ago, at 15:00 UTC
Wind 6 kt from the West
Temperature
Pressure 1014 hPa
Visibility 10 km or more
Scattered clouds at a height of 3000 ft

METAR: SBPJ 211500Z 28006KT 9999 SCT030 ///// Q1014

Time: 13:06 (16:06 UTC)

Forecast

The report was made 6 hours and 6 minutes ago, at 10:00 UTC
Forecast valid from 21 at 12 UTC to 22 at 12 UTC
Wind 5 kt from the West
Visibility 10 km or more
Few clouds at a height of 2000 ft
Scattered clouds at a height of 1200 ft
Becoming
from 21 at 18 UTC to 21 at 20 UTC
Scattered clouds at a height of 2500 ft
Few clouds at a height of 3000 ft, Towering cumulus.
Becoming
from 22 at 00 UTC to 22 at 02 UTC
Few clouds at a height of 3000 ft

TAF: SBPJ 211000Z 2112/2212 26005KT 9999 FEW020 SCT012 TX31/2117Z TN22/2208Z BECMG 2118/2120 SCT025 FEW030TCU BECMG 2200/2202 FEW030 RMK PED

Weather observations and forecasts of more than 4000 airports (METAR and TAF reports).

The available stations are represented by yellow and red dots on the map.

Hover mouse over dot to see the name of the station.

Then click to see weather observations and forecasts.

To change the map : click on the green buttons with a black cross to zoom in, on the green button with a dash to zoom out, or on the green arrows for adjacent maps.


METAR-TAF: